Time;durP1;ratioP1;P1;durP2;ratioP2;P2;SDS_P1;SDS_P2;PMS_P1;PMS_P2;Temp;Humidity;BMP_temperature;BMP_pressure;BME280_temperature;BME280_humidity;BME280_pressure;Samples;Min_cycle;Max_cycle;Signal;HPM_P1;HPM_P2
2022/03/16 00:02:00;;;;;;;1.63;1.40;;;10.30;99.90;;;;;;4966577;28;20290;-65
2022/03/16 00:04:27;;;;;;;1.77;1.67;;;10.20;99.90;;;;;;4968849;28;20210;-65
2022/03/16 00:06:54;;;;;;;2.53;2.33;;;10.20;99.90;;;;;;4969983;28;20774;-66
2022/03/16 00:09:21;;;;;;;3.13;2.93;;;10.10;99.90;;;;;;4969793;28;20673;-66
2022/03/16 00:11:48;;;;;;;4.00;3.67;;;10.10;99.90;;;;;;4964754;28;20298;-66
2022/03/16 00:14:15;;;;;;;3.13;2.93;;;10.00;99.90;;;;;;4975575;28;20314;-65
2022/03/16 00:16:42;;;;;;;5.67;4.30;;;9.90;99.90;;;;;;4988087;28;20231;-65
2022/03/16 00:19:10;;;;;;;7.90;4.37;;;9.90;99.90;;;;;;4986627;28;20705;-66
2022/03/16 00:21:37;;;;;;;2.90;2.80;;;9.80;99.90;;;;;;4970655;28;20234;-66
2022/03/16 00:24:04;;;;;;;4.37;3.97;;;9.70;99.90;;;;;;4975763;28;20207;-65
2022/03/16 00:26:31;;;;;;;6.73;3.93;;;9.70;99.90;;;;;;4978645;28;20772;-67
2022/03/16 00:28:58;;;;;;;6.43;4.17;;;9.70;99.90;;;;;;4975216;28;20293;-66
2022/03/16 00:31:25;;;;;;;5.47;4.30;;;9.70;99.90;;;;;;4973065;28;20675;-67
2022/03/16 00:33:52;;;;;;;4.20;3.90;;;9.70;99.90;;;;;;4986681;28;20229;-66
2022/03/16 00:36:21;;;;;;;5.73;4.47;;;9.70;99.90;;;;;;4980733;28;20253;-65
2022/03/16 00:38:49;;;;;;;5.20;4.70;;;9.70;99.90;;;;;;4960418;28;20206;-66
2022/03/16 00:41:16;;;;;;;6.87;4.90;;;9.60;99.90;;;;;;4955127;29;20208;-66
2022/03/16 00:43:43;;;;;;;9.60;5.13;;;9.60;99.90;;;;;;4955771;28;20203;-65
2022/03/16 00:46:10;;;;;;;3.50;3.30;;;9.70;99.90;;;;;;4955287;29;20563;-66
2022/03/16 00:48:37;;;;;;;6.10;4.20;;;9.70;99.90;;;;;;4956092;29;20299;-66
2022/03/16 00:51:04;;;;;;;3.90;3.50;;;9.70;99.90;;;;;;4955058;29;20213;-67
2022/03/16 00:53:34;;;;;;;4.10;3.80;;;9.70;99.90;;;;;;4955031;29;20262;-66
2022/03/16 00:56:02;;;;;;;8.20;5.00;;;9.70;99.90;;;;;;4955472;29;20608;-65
2022/03/16 00:58:29;;;;;;;3.90;3.50;;;9.70;99.90;;;;;;4955230;29;20688;-65
2022/03/16 01:00:56;;;;;;;4.27;3.97;;;9.70;99.90;;;;;;4986236;28;20201;-64
2022/03/16 01:03:23;;;;;;;4.07;3.67;;;9.80;99.90;;;;;;4993523;28;20208;-66
2022/03/16 01:05:49;;;;;;;4.10;3.80;;;9.80;99.90;;;;;;4993403;28;20210;-65
2022/03/16 01:08:16;;;;;;;3.87;3.57;;;9.90;99.90;;;;;;4994355;28;20222;-65
2022/03/16 01:10:45;;;;;;;4.20;3.90;;;9.90;99.90;;;;;;4992743;28;20712;-66
2022/03/16 01:13:12;;;;;;;4.53;4.22;;;9.90;99.90;;;;;;4993348;28;20564;-66
2022/03/16 01:15:39;;;;;;;5.27;4.77;;;10.00;99.90;;;;;;4993683;28;20233;-67
2022/03/16 01:18:06;;;;;;;4.90;4.47;;;9.90;99.90;;;;;;4993665;28;20232;-66
2022/03/16 01:20:33;;;;;;;6.80;5.78;;;9.90;99.90;;;;;;4993132;28;20293;-65
2022/03/16 01:23:00;;;;;;;4.10;3.90;;;9.80;99.90;;;;;;4993231;28;20293;-66
2022/03/16 01:25:27;;;;;;;4.43;4.13;;;9.80;99.90;;;;;;4993397;28;20296;-65
2022/03/16 01:27:55;;;;;;;4.30;4.05;;;9.90;99.90;;;;;;4992113;28;20230;-65
2022/03/16 01:30:22;;;;;;;4.70;4.37;;;10.00;99.90;;;;;;4991757;28;20325;-66
2022/03/16 01:32:49;;;;;;;3.90;3.70;;;10.00;99.90;;;;;;4975680;28;20252;-69
2022/03/16 01:35:16;;;;;;;4.10;3.90;;;10.10;99.90;;;;;;4977070;28;20915;-66
2022/03/16 01:37:45;;;;;;;3.73;3.43;;;10.10;99.90;;;;;;4977043;28;20230;-65
2022/03/16 01:40:12;;;;;;;3.97;3.77;;;10.10;99.90;;;;;;4975282;28;20773;-65
2022/03/16 01:42:40;;;;;;;4.30;4.10;;;10.10;99.90;;;;;;4986248;28;20238;-65
2022/03/16 01:45:10;;;;;;;4.10;3.90;;;10.10;99.90;;;;;;4992252;28;20309;-66
2022/03/16 01:47:44;;;;;;;4.27;3.97;;;10.10;99.90;;;;;;4995080;28;20219;-66
2022/03/16 01:50:11;;;;;;;4.30;4.03;;;10.10;99.90;;;;;;5006224;28;20209;-65
2022/03/16 01:52:40;;;;;;;3.70;3.50;;;10.10;99.90;;;;;;4993170;28;20292;-65
2022/03/16 01:55:08;;;;;;;3.20;3.00;;;10.10;99.90;;;;;;4992368;28;20257;-67
2022/03/16 01:57:37;;;;;;;3.00;2.80;;;10.10;99.90;;;;;;4987690;28;20720;-65
2022/03/16 02:00:06;;;;;;;2.50;2.40;;;10.10;99.90;;;;;;4965229;28;20250;-66
2022/03/16 02:02:34;;;;;;;2.30;2.20;;;10.00;99.90;;;;;;4953706;28;20787;-67
2022/03/16 02:05:01;;;;;;;2.40;2.30;;;10.00;99.90;;;;;;4992958;28;20304;-66
2022/03/16 02:07:28;;;;;;;2.20;2.10;;;10.00;99.90;;;;;;4991859;28;20293;-65
2022/03/16 02:09:58;;;;;;;3.00;2.90;;;10.00;99.90;;;;;;5010344;28;20209;-67
2022/03/16 02:12:25;;;;;;;3.17;2.97;;;10.00;99.90;;;;;;4996343;28;20226;-65
2022/03/16 02:14:52;;;;;;;2.97;2.80;;;10.10;99.90;;;;;;5002548;28;20257;-66
2022/03/16 02:17:19;;;;;;;4.40;4.20;;;10.20;99.90;;;;;;4993087;28;20233;-66
2022/03/16 02:19:47;;;;;;;5.00;4.70;;;10.20;99.90;;;;;;4992920;28;20221;-66
2022/03/16 02:22:15;;;;;;;4.85;4.55;;;10.00;99.90;;;;;;4995289;28;20285;-66
2022/03/16 02:24:43;;;;;;;5.70;5.30;;;10.00;99.90;;;;;;4992997;28;20202;-65
2022/03/16 02:27:10;;;;;;;5.75;5.35;;;9.80;99.90;;;;;;4992168;28;20221;-66
2022/03/16 02:29:37;;;;;;;6.47;5.97;;;9.70;99.90;;;;;;4992558;28;20205;-65
2022/03/16 02:32:05;;;;;;;6.33;5.93;;;9.70;99.90;;;;;;4991585;28;20720;-67
2022/03/16 02:34:32;;;;;;;5.60;5.30;;;9.60;99.90;;;;;;4992151;28;20234;-66
2022/03/16 02:36:59;;;;;;;6.43;6.07;;;9.60;99.90;;;;;;4991283;28;20252;-65
2022/03/16 02:39:26;;;;;;;6.00;5.70;;;9.60;99.90;;;;;;4992170;28;20206;-65
2022/03/16 02:41:54;;;;;;;7.50;7.00;;;9.50;99.90;;;;;;4991419;28;20224;-65
2022/03/16 02:44:21;;;;;;;6.18;5.88;;;9.50;99.90;;;;;;4990497;28;20233;-66
2022/03/16 02:46:48;;;;;;;6.55;6.15;;;9.40;99.90;;;;;;4992531;28;20264;-66
2022/03/16 02:49:16;;;;;;;7.23;6.73;;;9.30;99.90;;;;;;4992187;28;20292;-67
2022/03/16 02:51:43;;;;;;;7.03;6.63;;;9.30;99.90;;;;;;4970473;28;20209;-66
2022/03/16 02:54:10;;;;;;;7.03;6.63;;;9.20;99.90;;;;;;4957276;28;20215;-66
2022/03/16 02:56:37;;;;;;;7.20;6.80;;;9.10;99.90;;;;;;4959604;29;20246;-66
2022/03/16 02:59:05;;;;;;;7.53;7.03;;;9.10;99.90;;;;;;4954683;29;20207;-66
2022/03/16 03:01:32;;;;;;;6.50;6.17;;;9.00;99.90;;;;;;4953378;29;20301;-66
2022/03/16 03:03:59;;;;;;;8.10;7.60;;;9.00;99.90;;;;;;4953204;29;20254;-66
2022/03/16 03:06:27;;;;;;;6.63;6.32;;;9.00;99.90;;;;;;4967115;28;20299;-65
2022/03/16 03:08:54;;;;;;;6.72;6.40;;;8.90;99.90;;;;;;4991936;28;20206;-67
2022/03/16 03:11:21;;;;;;;6.57;6.17;;;8.90;99.90;;;;;;4991530;28;20209;-66
2022/03/16 03:13:47;;;;;;;7.13;6.73;;;8.90;99.90;;;;;;4991511;28;20257;-66
2022/03/16 03:16:16;;;;;;;6.70;6.27;;;8.90;99.90;;;;;;4992207;28;20245;-66
2022/03/16 03:18:43;;;;;;;6.80;6.40;;;8.90;99.90;;;;;;4992049;28;20198;-65
2022/03/16 03:21:09;;;;;;;7.07;6.67;;;9.00;99.90;;;;;;4991416;28;20214;-66
2022/03/16 03:23:36;;;;;;;6.10;5.80;;;9.00;99.90;;;;;;4991818;28;20202;-65
2022/03/16 03:26:03;;;;;;;6.07;5.77;;;9.10;99.90;;;;;;4991584;28;20715;-67
2022/03/16 03:28:30;;;;;;;6.17;5.87;;;9.10;99.90;;;;;;4991699;28;20313;-66
2022/03/16 03:30:57;;;;;;;6.10;5.80;;;9.10;99.90;;;;;;4985422;28;20656;-66
2022/03/16 03:33:25;;;;;;;6.00;5.70;;;9.10;99.90;;;;;;4963302;28;20787;-66
2022/03/16 03:35:52;;;;;;;7.07;6.67;;;9.20;99.90;;;;;;4973597;28;20318;-66
2022/03/16 03:38:19;;;;;;;6.40;6.10;;;9.10;99.90;;;;;;4988198;28;20597;-66
2022/03/16 03:40:46;;;;;;;7.03;6.63;;;9.10;99.90;;;;;;4985643;28;20221;-66
2022/03/16 03:43:13;;;;;;;7.07;6.67;;;9.10;99.90;;;;;;4982601;28;20216;-66
2022/03/16 03:45:40;;;;;;;6.17;5.77;;;9.10;99.90;;;;;;4976643;28;20230;-66
2022/03/16 03:48:07;;;;;;;5.93;5.57;;;9.30;99.90;;;;;;4973195;28;20625;-67
2022/03/16 03:50:35;;;;;;;5.80;5.50;;;9.20;99.90;;;;;;4972379;28;20689;-66
2022/03/16 03:53:02;;;;;;;6.33;6.03;;;9.20;99.90;;;;;;4975098;28;21047;-65
2022/03/16 03:55:29;;;;;;;6.10;5.80;;;9.30;99.90;;;;;;4975985;28;20325;-64
2022/03/16 03:57:58;;;;;;;6.93;6.53;;;9.30;99.90;;;;;;4978325;28;20273;-65
2022/03/16 04:00:25;;;;;;;6.70;6.30;;;9.30;99.90;;;;;;4980359;28;20221;-65
2022/03/16 04:02:54;;;;;;;6.33;6.00;;;9.30;99.90;;;;;;4990445;28;20214;-63
2022/03/16 04:05:21;;;;;;;6.10;5.80;;;9.30;99.90;;;;;;4978777;28;20209;-64
2022/03/16 04:07:49;;;;;;;6.57;6.18;;;9.40;99.90;;;;;;4956492;29;20230;-64
2022/03/16 04:10:17;;;;;;;6.60;6.20;;;9.40;99.90;;;;;;4956101;29;20692;-64
2022/03/16 04:12:44;;;;;;;6.30;6.00;;;9.40;99.90;;;;;;4956292;29;20211;-64
2022/03/16 04:15:11;;;;;;;6.67;6.27;;;9.70;99.90;;;;;;4966304;28;20294;-67
2022/03/16 04:17:39;;;;;;;6.63;6.23;;;9.50;99.90;;;;;;4968136;28;20269;-64
2022/03/16 04:20:07;;;;;;;7.70;7.20;;;9.40;99.90;;;;;;4975135;28;20206;-66
2022/03/16 04:22:34;;;;;;;7.17;6.77;;;9.40;99.90;;;;;;4978599;28;20207;-65
2022/03/16 04:25:03;;;;;;;7.17;6.77;;;9.50;99.90;;;;;;4960048;28;20205;-64
2022/03/16 04:27:30;;;;;;;6.27;5.97;;;9.40;99.90;;;;;;4965980;28;20258;-67
2022/03/16 04:29:57;;;;;;;6.90;6.50;;;9.40;99.90;;;;;;4958767;29;20221;-66
2022/03/16 04:32:24;;;;;;;6.90;6.50;;;9.50;99.90;;;;;;4977121;28;20207;-67
2022/03/16 04:34:51;;;;;;;7.17;6.77;;;9.40;99.90;;;;;;4979021;28;20223;-64
2022/03/16 04:37:18;;;;;;;7.43;7.03;;;9.40;99.90;;;;;;4979403;28;20289;-66
2022/03/16 04:39:45;;;;;;;7.20;6.80;;;9.40;99.90;;;;;;4982396;28;20226;-64
2022/03/16 04:42:13;;;;;;;7.13;6.73;;;9.40;99.90;;;;;;4978794;28;20294;-65
2022/03/16 04:44:40;;;;;;;7.27;6.87;;;9.40;99.90;;;;;;4980179;28;20294;-65
2022/03/16 04:47:07;;;;;;;7.77;7.27;;;9.40;99.90;;;;;;4978575;28;20230;-66
2022/03/16 04:49:34;;;;;;;7.30;6.90;;;9.40;99.90;;;;;;4979525;28;20294;-68
2022/03/16 04:52:01;;;;;;;7.10;6.70;;;9.40;99.90;;;;;;4994255;28;20274;-65
2022/03/16 04:54:28;;;;;;;6.83;6.47;;;9.40;99.90;;;;;;4998491;28;20253;-66
2022/03/16 04:56:56;;;;;;;7.33;6.83;;;9.40;99.90;;;;;;4998499;28;20241;-66
2022/03/16 04:59:24;;;;;;;7.67;7.27;;;9.40;99.90;;;;;;4998094;28;20228;-66
2022/03/16 05:01:51;;;;;;;7.20;6.80;;;9.40;99.90;;;;;;4984765;28;20492;-67
2022/03/16 05:04:18;;;;;;;8.80;8.20;;;9.40;99.90;;;;;;4980860;28;20643;-64
2022/03/16 05:06:45;;;;;;;9.10;8.50;;;9.40;99.90;;;;;;4978162;28;20789;-66
2022/03/16 05:09:12;;;;;;;8.00;7.40;;;9.30;99.90;;;;;;4973095;28;20293;-67
2022/03/16 05:11:40;;;;;;;7.80;7.40;;;9.30;99.90;;;;;;4978686;28;20313;-65
2022/03/16 05:14:07;;;;;;;8.53;8.03;;;9.30;99.90;;;;;;4979393;28;20211;-66
2022/03/16 05:16:36;;;;;;;8.53;8.03;;;9.40;99.90;;;;;;4974555;28;20314;-66
2022/03/16 05:19:03;;;;;;;7.50;7.10;;;9.40;99.90;;;;;;4974572;28;20253;-66
2022/03/16 05:21:29;;;;;;;7.57;7.17;;;9.40;99.90;;;;;;4974796;28;20234;-66
2022/03/16 05:23:56;;;;;;;6.90;6.50;;;9.40;99.90;;;;;;4976377;28;20206;-64
2022/03/16 05:26:23;;;;;;;8.33;7.83;;;9.50;99.90;;;;;;4973091;28;20202;-68
2022/03/16 05:28:52;;;;;;;7.87;7.40;;;9.50;99.90;;;;;;4975709;28;20207;-64
2022/03/16 05:31:19;;;;;;;8.67;8.07;;;9.50;99.90;;;;;;4983060;28;20269;-64
2022/03/16 05:33:48;;;;;;;9.10;8.50;;;9.50;99.90;;;;;;4984036;28;20241;-67
2022/03/16 05:36:14;;;;;;;8.17;7.67;;;9.40;99.90;;;;;;4973994;28;20313;-66
2022/03/16 05:38:42;;;;;;;8.30;7.70;;;9.40;99.90;;;;;;4975320;28;20241;-69
2022/03/16 05:41:11;;;;;;;7.70;7.30;;;9.60;99.90;;;;;;4974418;28;20211;-67
2022/03/16 05:43:38;;;;;;;8.13;7.63;;;9.60;99.90;;;;;;4975159;28;20214;-68
2022/03/16 05:46:04;;;;;;;8.40;7.90;;;9.70;99.90;;;;;;4971781;28;20226;-65
2022/03/16 05:48:31;;;;;;;10.13;9.43;;;9.60;99.90;;;;;;4975921;28;20268;-67
2022/03/16 05:51:00;;;;;;;9.03;8.50;;;9.50;99.90;;;;;;4974358;28;20213;-67
2022/03/16 05:53:26;;;;;;;8.83;8.27;;;9.50;99.90;;;;;;4964361;28;20218;-65
2022/03/16 05:55:53;;;;;;;9.63;8.95;;;9.50;99.90;;;;;;4978209;28;20261;-68
2022/03/16 05:58:21;;;;;;;9.30;8.70;;;9.50;99.90;;;;;;4985715;28;20277;-66
2022/03/16 06:00:48;;;;;;;8.50;8.00;;;9.40;99.90;;;;;;4994588;28;20206;-66
2022/03/16 06:03:15;;;;;;;9.60;9.00;;;9.60;99.90;;;;;;4994516;28;20283;-65
2022/03/16 06:05:41;;;;;;;10.87;10.07;;;9.50;99.90;;;;;;4995183;28;20206;-66
2022/03/16 06:08:10;;;;;;;10.97;10.17;;;9.30;99.90;;;;;;4992938;28;20316;-65
2022/03/16 06:10:38;;;;;;;10.60;9.87;;;9.30;99.90;;;;;;4967385;28;20572;-66
2022/03/16 06:13:06;;;;;;;11.20;10.30;;;9.30;99.90;;;;;;4965270;28;20675;-65
2022/03/16 06:15:40;;;;;;;11.73;10.90;;;9.20;99.90;;;;;;4961516;28;20296;-66
2022/03/16 06:18:07;;;;;;;14.57;13.03;;;9.20;99.90;;;;;;4969223;28;20233;-68
2022/03/16 06:20:35;;;;;;;12.82;11.82;;;9.00;99.90;;;;;;4971622;28;20651;-66
2022/03/16 06:23:04;;;;;;;11.97;11.17;;;9.00;99.90;;;;;;4957577;28;20235;-67
2022/03/16 06:25:32;;;;;;;11.30;10.50;;;9.00;99.90;;;;;;4964355;28;20200;-66
2022/03/16 06:27:59;;;;;;;12.55;11.55;;;9.10;99.90;;;;;;4994459;23;20232;-64
2022/03/16 06:30:26;;;;;;;13.37;12.27;;;9.20;99.90;;;;;;5019124;28;20291;-64
2022/03/16 06:32:53;;;;;;;15.23;13.90;;;9.20;99.90;;;;;;5020117;28;20284;-63
2022/03/16 06:35:20;;;;;;;15.80;14.23;;;9.20;99.90;;;;;;5013596;28;20667;-64
2022/03/16 06:37:47;;;;;;;13.80;12.70;;;9.20;99.90;;;;;;5032908;28;20249;-63
2022/03/16 06:40:15;;;;;;;13.57;12.27;;;9.10;99.90;;;;;;5027817;28;20247;-63
2022/03/16 06:42:52;;;;;;;12.50;11.50;;;9.10;99.90;;;;;;5032817;28;20236;-64
2022/03/16 06:45:20;;;;;;;15.20;13.60;;;9.20;99.90;;;;;;5023802;28;20264;-63
2022/03/16 06:47:47;;;;;;;12.73;11.73;;;9.20;99.90;;;;;;5031100;28;20565;-64
2022/03/16 06:50:14;;;;;;;15.13;13.70;;;9.20;99.90;;;;;;5030876;28;20282;-64
2022/03/16 06:52:41;;;;;;;13.53;12.23;;;9.20;99.90;;;;;;5030953;28;20288;-64
2022/03/16 06:55:09;;;;;;;12.67;11.70;;;9.20;99.90;;;;;;5031064;28;20228;-62
2022/03/16 06:57:36;;;;;;;12.67;11.67;;;9.20;99.90;;;;;;5029634;28;20228;-63
2022/03/16 07:00:07;;;;;;;12.73;11.73;;;9.30;99.90;;;;;;5030030;28;20208;-64
2022/03/16 07:02:51;;;;;;;13.80;12.73;;;9.40;99.90;;;;;;5032671;28;20220;-64
2022/03/16 07:05:18;;;;;;;12.07;11.17;;;9.40;99.90;;;;;;5032108;28;20232;-64
2022/03/16 07:07:45;;;;;;;13.87;12.57;;;9.50;99.90;;;;;;5031624;28;20779;-65
2022/03/16 07:10:12;;;;;;;13.40;12.30;;;9.60;99.90;;;;;;5030775;28;20240;-63
2022/03/16 07:12:39;;;;;;;11.32;10.52;;;9.60;99.90;;;;;;5031102;28;20633;-64
2022/03/16 07:15:09;;;;;;;12.97;12.00;;;9.60;99.90;;;;;;5031038;28;20230;-63
2022/03/16 07:17:36;;;;;;;14.45;13.23;;;9.60;99.90;;;;;;5032131;28;20221;-63
2022/03/16 07:20:06;;;;;;;13.73;12.63;;;9.50;99.90;;;;;;5030995;28;20236;-65
2022/03/16 07:22:33;;;;;;;12.37;11.43;;;9.40;99.90;;;;;;5031571;28;20686;-63
2022/03/16 07:25:00;;;;;;;11.93;11.03;;;9.50;99.90;;;;;;5032625;28;20240;-64
2022/03/16 07:27:27;;;;;;;12.07;11.17;;;9.50;99.90;;;;;;5036363;28;20264;-64
2022/03/16 07:29:54;;;;;;;11.80;10.90;;;9.50;99.90;;;;;;5052793;28;20239;-64
2022/03/16 07:32:22;;;;;;;11.90;11.00;;;9.60;99.90;;;;;;5040176;28;20236;-64
2022/03/16 07:34:49;;;;;;;12.40;11.60;;;9.60;99.90;;;;;;5038729;28;20273;-64
2022/03/16 07:37:17;;;;;;;11.33;10.53;;;9.60;99.90;;;;;;5042397;28;20274;-63
2022/03/16 07:39:44;;;;;;;11.13;10.33;;;9.60;99.90;;;;;;5046358;28;20211;-64
2022/03/16 07:42:11;;;;;;;10.75;9.95;;;9.60;99.90;;;;;;5042393;28;20204;-65
2022/03/16 07:44:38;;;;;;;11.33;10.53;;;9.70;99.90;;;;;;5039931;28;20235;-64
2022/03/16 07:47:07;;;;;;;10.93;10.13;;;9.70;99.90;;;;;;5021026;28;20196;-64
2022/03/16 07:49:35;;;;;;;10.70;10.00;;;9.70;99.90;;;;;;5023622;28;20303;-64
2022/03/16 07:52:02;;;;;;;10.27;9.60;;;9.80;99.90;;;;;;5035112;28;20253;-64
2022/03/16 07:54:29;;;;;;;9.93;9.33;;;9.80;99.90;;;;;;5031353;28;20920;-65
2022/03/16 07:56:56;;;;;;;10.33;9.67;;;9.90;99.90;;;;;;5032335;28;20252;-63
2022/03/16 07:59:23;;;;;;;12.10;11.20;;;9.90;99.90;;;;;;5034166;28;20247;-65
2022/03/16 08:01:50;;;;;;;11.33;10.53;;;9.90;99.90;;;;;;5037261;28;20719;-64
2022/03/16 08:04:17;;;;;;;13.03;12.07;;;9.80;99.90;;;;;;5040398;28;20204;-65
2022/03/16 08:06:45;;;;;;;12.30;11.40;;;9.70;99.90;;;;;;5040152;28;20316;-63
2022/03/16 08:09:12;;;;;;;12.97;12.03;;;9.60;99.90;;;;;;5031513;28;20322;-63
2022/03/16 08:11:39;;;;;;;12.93;12.00;;;9.60;99.90;;;;;;5033759;28;20288;-64
2022/03/16 08:14:07;;;;;;;12.70;11.80;;;9.60;99.90;;;;;;5032907;28;20651;-63
2022/03/16 08:16:34;;;;;;;12.80;11.90;;;9.60;99.90;;;;;;5034286;28;20276;-64
2022/03/16 08:19:00;;;;;;;13.80;12.70;;;9.50;99.90;;;;;;5047308;28;20231;-64
2022/03/16 08:21:27;;;;;;;12.73;11.73;;;9.50;99.90;;;;;;5050731;28;20205;-64
2022/03/16 08:23:56;;;;;;;12.93;11.97;;;9.50;99.90;;;;;;5045376;28;20239;-64
2022/03/16 08:26:24;;;;;;;15.03;13.73;;;9.50;99.90;;;;;;5041900;28;20592;-64
2022/03/16 08:28:51;;;;;;;12.57;11.68;;;9.40;99.90;;;;;;5033721;28;20740;-64
2022/03/16 08:31:18;;;;;;;11.65;10.85;;;9.50;99.90;;;;;;5034391;28;20204;-64
2022/03/16 08:33:48;;;;;;;11.95;11.13;;;9.60;99.90;;;;;;5033385;28;20266;-63
2022/03/16 08:36:15;;;;;;;11.57;10.57;;;9.70;99.90;;;;;;5033522;28;20225;-65
2022/03/16 08:38:42;;;;;;;11.50;10.70;;;9.70;99.90;;;;;;5032847;28;20224;-65
2022/03/16 08:41:11;;;;;;;11.43;10.43;;;9.80;99.90;;;;;;5033084;28;20339;-64
2022/03/16 08:43:38;;;;;;;10.40;9.70;;;9.70;99.90;;;;;;5048288;28;20210;-64
2022/03/16 08:46:06;;;;;;;10.80;9.97;;;9.70;99.90;;;;;;5053678;28;20196;-65
2022/03/16 08:48:33;;;;;;;10.47;9.77;;;9.70;99.90;;;;;;5054509;28;20220;-64
2022/03/16 08:51:02;;;;;;;11.43;10.57;;;9.80;99.90;;;;;;5042662;28;20646;-64
2022/03/16 08:53:28;;;;;;;9.53;8.93;;;9.70;99.90;;;;;;5033584;28;20224;-63
2022/03/16 08:55:55;;;;;;;9.33;8.70;;;9.60;99.90;;;;;;5033497;28;20267;-65
2022/03/16 08:58:24;;;;;;;9.43;8.82;;;9.60;99.90;;;;;;5046799;28;20290;-64
2022/03/16 09:00:50;;;;;;;9.80;9.13;;;9.80;99.90;;;;;;5041881;28;20208;-64
2022/03/16 09:03:17;;;;;;;8.53;7.97;;;9.80;99.90;;;;;;5032302;28;20299;-64
2022/03/16 09:05:44;;;;;;;8.63;8.03;;;9.80;99.90;;;;;;5032913;28;20287;-65
2022/03/16 09:08:11;;;;;;;8.33;7.80;;;10.00;99.90;;;;;;5030155;28;20732;-64
2022/03/16 09:10:38;;;;;;;8.60;8.10;;;10.00;99.90;;;;;;5041778;28;20298;-65
2022/03/16 09:13:06;;;;;;;8.73;8.13;;;10.10;99.90;;;;;;5053078;28;20681;-65
2022/03/16 09:15:34;;;;;;;8.73;8.20;;;10.20;99.90;;;;;;5049032;28;20196;-65
2022/03/16 09:18:01;;;;;;;10.37;9.67;;;10.10;99.90;;;;;;5032737;28;20677;-65
2022/03/16 09:20:28;;;;;;;9.80;9.10;;;10.20;99.90;;;;;;5032159;28;20232;-65
2022/03/16 09:22:55;;;;;;;8.98;8.38;;;10.10;99.90;;;;;;5031450;28;20239;-64
2022/03/16 09:25:25;;;;;;;8.47;7.97;;;10.10;99.90;;;;;;5030265;28;20241;-63
2022/03/16 09:27:52;;;;;;;10.10;9.40;;;10.10;99.90;;;;;;5032538;28;20244;-65
2022/03/16 09:30:19;;;;;;;8.73;8.17;;;10.00;99.90;;;;;;5031830;28;20240;-64
2022/03/16 09:32:47;;;;;;;7.70;7.20;;;10.10;99.90;;;;;;5031433;28;20205;-64
2022/03/16 09:35:14;;;;;;;7.63;7.13;;;10.20;99.90;;;;;;5032185;28;20309;-64
2022/03/16 09:37:41;;;;;;;8.63;8.02;;;10.30;99.90;;;;;;5031778;28;20267;-64
2022/03/16 09:40:10;;;;;;;8.10;7.60;;;10.30;99.90;;;;;;5031638;28;20208;-64
2022/03/16 09:42:39;;;;;;;8.40;7.90;;;10.30;99.90;;;;;;5031298;28;20633;-65
2022/03/16 09:45:10;;;;;;;9.48;8.88;;;10.30;99.90;;;;;;5032370;28;20204;-64
2022/03/16 09:47:38;;;;;;;8.60;8.10;;;10.30;99.90;;;;;;5032109;28;20225;-64
2022/03/16 09:50:07;;;;;;;7.30;6.90;;;10.20;99.90;;;;;;5030324;28;20265;-63
2022/03/16 09:52:34;;;;;;;8.17;7.67;;;10.40;99.90;;;;;;5031568;28;20267;-64
2022/03/16 09:55:05;;;;;;;7.30;6.90;;;10.40;99.90;;;;;;5034871;28;20201;-64
2022/03/16 09:57:32;;;;;;;7.63;7.13;;;10.40;99.90;;;;;;5031616;28;20235;-63
2022/03/16 09:59:59;;;;;;;9.13;8.53;;;10.60;99.90;;;;;;5031415;28;20679;-65
2022/03/16 10:02:27;;;;;;;9.30;8.60;;;10.70;99.90;;;;;;5031261;28;20227;-64
2022/03/16 10:04:55;;;;;;;9.63;9.00;;;10.60;99.90;;;;;;5031644;28;20382;-64
2022/03/16 10:07:29;;;;;;;9.90;9.20;;;10.40;99.90;;;;;;5031395;28;20200;-64
2022/03/16 10:15:25;;;;;;;9.60;8.90;;;10.30;99.90;;;;;;5022487;28;20204;-65
2022/03/16 10:17:59;;;;;;;9.50;8.90;;;10.20;99.90;;;;;;5034356;28;20228;-64
2022/03/16 10:20:28;;;;;;;9.20;8.60;;;10.20;99.90;;;;;;5038893;28;20252;-64
2022/03/16 10:22:59;;;;;;;8.83;8.23;;;10.20;99.90;;;;;;5036892;28;20216;-65
2022/03/16 10:25:27;;;;;;;8.33;7.83;;;10.20;99.90;;;;;;5046815;28;20228;-64
2022/03/16 10:28:13;;;;;;;9.07;8.47;;;10.20;99.90;;;;;;5042539;28;20300;-65
2022/03/16 10:30:49;;;;;;;9.77;9.17;;;10.30;99.90;;;;;;5032110;28;20192;-64
2022/03/16 10:33:19;;;;;;;9.30;8.70;;;10.20;99.90;;;;;;5031293;28;20206;-65
2022/03/16 10:36:00;;;;;;;9.17;8.60;;;10.20;99.90;;;;;;5032132;28;20291;-64
2022/03/16 10:38:29;;;;;;;8.63;8.03;;;10.20;99.90;;;;;;5034121;28;20242;-64
2022/03/16 10:41:09;;;;;;;9.63;8.93;;;10.20;99.90;;;;;;5033659;28;20840;-65
2022/03/16 10:46:38;;;;;;;9.50;8.90;;;10.20;99.90;;;;;;5032489;28;20235;-64
2022/03/16 10:49:07;;;;;;;8.37;7.87;;;10.20;99.90;;;;;;5031206;28;20235;-64
2022/03/16 10:51:34;;;;;;;8.50;8.00;;;10.30;99.90;;;;;;5036156;28;20241;-64
2022/03/16 10:54:05;;;;;;;8.17;7.67;;;10.30;99.90;;;;;;5050356;28;20211;-64
2022/03/16 10:56:32;;;;;;;8.53;8.03;;;10.40;99.90;;;;;;5051086;28;20212;-64
2022/03/16 10:59:00;;;;;;;8.40;7.90;;;10.40;99.90;;;;;;5046370;28;20597;-64
2022/03/16 11:01:28;;;;;;;10.30;9.60;;;10.40;99.90;;;;;;5016970;28;20641;-65
2022/03/16 11:03:58;;;;;;;8.90;8.40;;;10.50;99.90;;;;;;5034563;28;20210;-63
2022/03/16 11:06:26;;;;;;;8.40;7.90;;;10.40;99.90;;;;;;5034895;28;20189;-64
2022/03/16 11:08:53;;;;;;;7.73;7.23;;;10.50;99.90;;;;;;5035326;28;20236;-66
2022/03/16 11:14:08;;;;;;;9.10;8.53;;;10.60;99.90;;;;;;5015110;28;20587;-65
2022/03/16 11:16:35;;;;;;;8.73;8.13;;;10.60;99.90;;;;;;5015936;28;20217;-65
2022/03/16 11:19:04;;;;;;;8.90;8.30;;;10.70;99.90;;;;;;5035282;28;20316;-64
2022/03/16 11:21:37;;;;;;;8.73;8.17;;;10.60;99.90;;;;;;5042675;28;20326;-65
2022/03/16 11:27:25;;;;;;;8.33;7.80;;;10.60;99.90;;;;;;5041295;28;20762;-64
2022/03/16 11:30:09;;;;;;;8.50;8.00;;;10.60;99.90;;;;;;5022761;28;20208;-64
2022/03/16 11:32:38;;;;;;;8.30;7.80;;;10.60;99.90;;;;;;5033287;28;20708;-65
2022/03/16 11:35:08;;;;;;;7.83;7.43;;;10.50;99.90;;;;;;5034003;28;20236;-65
2022/03/16 11:37:37;;;;;;;8.00;7.57;;;10.50;99.90;;;;;;5033967;28;20661;-63
2022/03/16 11:40:09;;;;;;;8.67;8.17;;;10.70;99.90;;;;;;5033480;28;20759;-64
2022/03/16 11:42:38;;;;;;;8.30;7.80;;;10.60;99.90;;;;;;5034528;28;20616;-65
2022/03/16 11:45:37;;;;;;;9.73;9.13;;;10.40;99.90;;;;;;5034216;28;20287;-64
2022/03/16 11:48:41;;;;;;;8.60;8.00;;;10.40;99.90;;;;;;5053688;28;20219;-64
2022/03/16 11:51:25;;;;;;;9.07;8.53;;;10.50;99.90;;;;;;5053551;28;20200;-65
2022/03/16 11:54:06;;;;;;;8.63;8.03;;;10.50;99.90;;;;;;5053511;28;20204;-63
2022/03/16 11:56:53;;;;;;;8.37;7.87;;;10.50;99.90;;;;;;5042127;28;20224;-64
2022/03/16 11:59:51;;;;;;;8.30;7.80;;;10.50;99.90;;;;;;5033900;28;20219;-63
2022/03/16 12:02:28;;;;;;;8.63;8.13;;;10.60;99.90;;;;;;4972350;28;20190;-64
2022/03/16 12:05:02;;;;;;;8.70;8.20;;;10.70;99.90;;;;;;5023541;28;20296;-64
2022/03/16 12:07:35;;;;;;;9.27;8.67;;;10.60;99.90;;;;;;5034361;28;20262;-63
2022/03/16 12:10:08;;;;;;;9.47;8.87;;;10.60;99.90;;;;;;5032981;28;20211;-65
2022/03/16 12:12:51;;;;;;;9.23;8.63;;;10.60;99.90;;;;;;5032768;28;20275;-64
2022/03/16 12:15:34;;;;;;;8.47;7.87;;;10.60;99.90;;;;;;5033793;28;20228;-65
2022/03/16 12:18:26;;;;;;;9.60;8.90;;;10.70;99.90;;;;;;5034058;28;20232;-64
2022/03/16 12:21:03;;;;;;;10.07;9.47;;;10.80;99.90;;;;;;5020184;28;20556;-65
2022/03/16 12:23:58;;;;;;;9.13;8.57;;;10.70;99.90;;;;;;5034647;28;20596;-63
2022/03/16 12:26:30;;;;;;;8.57;8.03;;;10.80;99.90;;;;;;5014534;28;20664;-64
2022/03/16 12:29:07;;;;;;;9.40;8.80;;;10.80;99.90;;;;;;5039207;23;20233;-66
2022/03/16 12:31:42;;;;;;;9.03;8.50;;;10.80;99.90;;;;;;5028204;28;20260;-66
2022/03/16 12:34:09;;;;;;;8.65;8.15;;;10.80;99.90;;;;;;5014408;28;20220;-66
2022/03/16 12:36:36;;;;;;;7.93;7.43;;;10.80;99.90;;;;;;5031059;28;20386;-66
2022/03/16 12:39:07;;;;;;;9.27;8.67;;;10.90;99.90;;;;;;5043781;28;20295;-66
2022/03/16 12:44:21;;;;;;;10.05;9.45;;;11.10;99.90;;;;;;5053797;28;20242;-66
2022/03/16 12:46:56;;;;;;;9.50;8.90;;;11.10;99.90;;;;;;5055928;28;20203;-66
2022/03/16 12:49:24;;;;;;;8.93;8.33;;;10.90;99.90;;;;;;5054720;28;20315;-67
2022/03/16 12:51:52;;;;;;;8.77;8.27;;;10.90;99.90;;;;;;5055305;28;20211;-65
2022/03/16 12:54:27;;;;;;;9.30;8.80;;;11.00;99.90;;;;;;5036836;28;20205;-67
2022/03/16 12:56:58;;;;;;;9.60;8.90;;;11.10;99.90;;;;;;5034058;28;20228;-66
2022/03/16 12:59:26;;;;;;;8.67;8.17;;;11.00;99.90;;;;;;5033769;28;20235;-66
2022/03/16 13:01:57;;;;;;;8.52;8.02;;;11.10;99.90;;;;;;5033659;28;20204;-66
2022/03/16 13:04:25;;;;;;;8.37;7.83;;;11.20;99.90;;;;;;5033939;28;20632;-66
2022/03/16 13:06:54;;;;;;;7.50;7.10;;;11.40;99.90;;;;;;5033664;28;20576;-65
2022/03/16 13:09:21;;;;;;;8.50;7.90;;;11.60;99.90;;;;;;5033990;28;20258;-66
2022/03/16 13:11:48;;;;;;;7.40;6.97;;;11.70;99.90;;;;;;5032909;28;20209;-66
2022/03/16 13:14:17;;;;;;;7.93;7.43;;;11.80;99.90;;;;;;5033047;28;20296;-66